createdAt,value
2022-07-31T00:01:19.518Z,21.93
2022-07-31T00:03:46.098Z,21.89
2022-07-31T00:06:12.682Z,22.20
2022-07-31T00:08:39.155Z,22.16
2022-07-31T00:11:05.651Z,22.29
2022-07-31T00:13:56.413Z,22.30
2022-07-31T00:16:18.588Z,22.34
2022-07-31T00:18:45.097Z,21.82
2022-07-31T00:21:13.966Z,22.14
2022-07-31T00:23:41.090Z,21.98
2022-07-31T00:26:08.281Z,22.07
2022-07-31T00:28:34.842Z,22.19
2022-07-31T00:31:01.447Z,21.23
2022-07-31T00:33:27.997Z,20.94
2022-07-31T00:35:54.563Z,21.30
2022-07-31T00:38:28.119Z,21.28
2022-07-31T00:40:54.821Z,21.18
2022-07-31T00:43:21.483Z,21.32
2022-07-31T00:45:58.538Z,20.81
2022-07-31T00:48:25.821Z,20.69
2022-07-31T00:50:54.083Z,20.86
2022-07-31T00:53:20.588Z,21.30
2022-07-31T00:55:51.882Z,21.31
2022-07-31T00:58:20.020Z,21.48
2022-07-31T01:00:46.958Z,21.38
2022-07-31T01:03:14.355Z,21.39
2022-07-31T01:05:41.714Z,20.54
2022-07-31T01:08:08.371Z,21.08
2022-07-31T01:10:40.885Z,21.13
2022-07-31T01:13:14.966Z,20.78
2022-07-31T01:15:43.287Z,21.25
2022-07-31T01:18:11.611Z,21.24
2022-07-31T01:20:42.762Z,21.14
2022-07-31T01:23:35.374Z,21.06
2022-07-31T01:26:31.627Z,21.34
2022-07-31T01:29:06.803Z,20.95
2022-07-31T01:31:41.721Z,20.95
2022-07-31T01:34:16.202Z,20.98
2022-07-31T01:36:52.320Z,21.47
2022-07-31T01:39:18.878Z,21.33
2022-07-31T01:41:49.726Z,21.35
2022-07-31T01:44:19.096Z,21.41
2022-07-31T01:46:46.882Z,21.05
2022-07-31T01:49:14.607Z,21.04
2022-07-31T01:51:44.372Z,21.24
2022-07-31T01:54:14.674Z,21.14
2022-07-31T01:56:42.016Z,21.16
2022-07-31T01:59:20.101Z,21.05
2022-07-31T02:01:59.742Z,21.34
2022-07-31T02:04:27.609Z,21.29
2022-07-31T02:06:55.824Z,21.36
2022-07-31T02:09:24.434Z,21.28
2022-07-31T02:11:54.400Z,21.35
2022-07-31T02:14:22.170Z,21.35
2022-07-31T02:16:49.988Z,21.43
2022-07-31T02:19:17.308Z,21.27
2022-07-31T02:21:43.919Z,21.33
2022-07-31T02:24:10.503Z,21.00
2022-07-31T02:26:39.118Z,21.08
2022-07-31T02:29:08.281Z,20.93
2022-07-31T02:31:48.310Z,21.33
2022-07-31T02:34:30.622Z,21.28
2022-07-31T02:36:57.369Z,21.39
2022-07-31T02:39:30.147Z,21.02
2022-07-31T02:41:59.338Z,21.07
2022-07-31T02:44:27.628Z,20.52
2022-07-31T02:46:55.350Z,20.71
2022-07-31T02:49:22.559Z,21.01
2022-07-31T02:51:49.079Z,21.03
2022-07-31T02:54:17.471Z,21.06
2022-07-31T02:56:46.268Z,21.19
2022-07-31T02:59:12.731Z,21.18
2022-07-31T03:01:39.206Z,21.18
2022-07-31T03:04:05.683Z,21.18
2022-07-31T03:06:32.171Z,20.82
2022-07-31T03:08:59.212Z,21.03
2022-07-31T03:11:25.700Z,20.75
2022-07-31T03:13:54.657Z,20.70
2022-07-31T03:16:22.652Z,20.96
2022-07-31T03:18:49.791Z,21.04
2022-07-31T03:21:17.359Z,21.00
2022-07-31T03:23:43.967Z,20.79
2022-07-31T03:26:10.712Z,20.63
2022-07-31T03:28:37.266Z,20.42
2022-07-31T03:31:04.105Z,20.55
2022-07-31T03:33:30.703Z,20.21
2022-07-31T03:35:58.006Z,19.91
2022-07-31T03:38:39.273Z,20.13
2022-07-31T03:41:09.615Z,20.37
2022-07-31T03:43:47.437Z,20.67
2022-07-31T03:46:21.167Z,20.71
2022-07-31T03:48:48.310Z,20.68
2022-07-31T03:51:15.642Z,20.70
2022-07-31T03:53:43.483Z,20.68
2022-07-31T03:56:11.461Z,20.73
2022-07-31T03:58:38.631Z,20.81
2022-07-31T04:01:09.748Z,20.75
2022-07-31T04:03:37.183Z,20.70
2022-07-31T04:06:03.698Z,20.69
2022-07-31T04:08:30.234Z,20.77
2022-07-31T04:10:56.687Z,20.68
2022-07-31T04:13:23.215Z,20.41
2022-07-31T04:15:49.689Z,20.45
2022-07-31T04:18:16.165Z,20.61
2022-07-31T04:20:42.737Z,20.64
2022-07-31T04:23:09.282Z,20.72
2022-07-31T04:25:36.165Z,20.60
2022-07-31T04:28:02.850Z,20.58
2022-07-31T04:30:29.352Z,20.44
2022-07-31T04:32:55.840Z,20.20
2022-07-31T04:35:22.377Z,20.45
2022-07-31T04:37:48.905Z,20.67
2022-07-31T04:40:15.959Z,20.81
2022-07-31T04:42:42.648Z,20.76
2022-07-31T04:47:51.046Z,20.97
2022-07-31T04:50:17.567Z,20.91
2022-07-31T04:52:44.024Z,20.54
2022-07-31T04:55:10.743Z,21.16
2022-07-31T04:57:37.272Z,21.26
2022-07-31T05:00:06.101Z,21.20
2022-07-31T05:02:32.719Z,21.45
2022-07-31T05:04:59.201Z,21.15
2022-07-31T05:07:28.606Z,20.97
2022-07-31T05:09:56.422Z,21.55
2022-07-31T05:12:22.853Z,21.79
2022-07-31T05:14:49.330Z,21.78
2022-07-31T05:17:15.797Z,21.72
2022-07-31T05:19:42.317Z,21.57
2022-07-31T05:22:09.371Z,21.65
2022-07-31T05:24:36.070Z,21.84
2022-07-31T05:27:04.306Z,21.33
2022-07-31T05:29:32.253Z,22.14
2022-07-31T05:32:00.394Z,22.19
2022-07-31T05:34:30.097Z,22.04
2022-07-31T05:36:57.670Z,22.52
2022-07-31T05:39:25.174Z,22.50
2022-07-31T05:41:52.697Z,21.71
2022-07-31T05:44:22.444Z,22.10
2022-07-31T05:49:15.400Z,22.79
2022-07-31T05:51:46.457Z,22.40
2022-07-31T05:54:13.024Z,22.83
2022-07-31T05:56:39.502Z,22.77
2022-07-31T05:59:06.035Z,22.87
2022-07-31T06:01:32.538Z,22.68
2022-07-31T06:03:59.052Z,23.29
2022-07-31T06:06:25.915Z,22.93
2022-07-31T06:08:52.451Z,23.21
2022-07-31T06:11:18.910Z,23.38
2022-07-31T06:13:45.502Z,23.28
2022-07-31T06:16:13.823Z,23.39
2022-07-31T06:18:40.641Z,23.30
2022-07-31T06:21:07.167Z,22.74
2022-07-31T06:23:33.760Z,23.21
2022-07-31T06:26:00.201Z,23.08
2022-07-31T06:28:47.599Z,23.26
2022-07-31T06:31:19.082Z,22.87
2022-07-31T06:33:48.478Z,22.98
2022-07-31T06:36:15.916Z,22.92
2022-07-31T06:38:42.437Z,22.83
2022-07-31T06:41:08.903Z,23.22
2022-07-31T06:43:35.366Z,23.23
2022-07-31T06:46:01.902Z,22.57
2022-07-31T06:48:28.457Z,23.34
2022-07-31T06:51:14.575Z,22.97
2022-07-31T06:53:41.540Z,22.91
2022-07-31T06:56:08.470Z,22.55
2022-07-31T06:58:34.923Z,23.19
2022-07-31T07:01:01.474Z,23.26
2022-07-31T07:03:28.066Z,23.42
2022-07-31T07:05:54.604Z,23.76
2022-07-31T07:08:21.109Z,22.51
2022-07-31T07:10:47.557Z,22.79
2022-07-31T07:13:14.146Z,23.40
2022-07-31T07:15:40.733Z,23.44
2022-07-31T07:18:07.337Z,23.67
2022-07-31T07:20:33.974Z,23.96
2022-07-31T07:23:00.438Z,23.66
2022-07-31T07:25:26.904Z,23.62
2022-07-31T07:27:53.798Z,24.07
2022-07-31T07:30:20.343Z,24.75
2022-07-31T07:32:46.869Z,24.04
2022-07-31T07:35:13.836Z,24.64
2022-07-31T07:37:41.378Z,23.72
2022-07-31T07:40:09.126Z,24.77
2022-07-31T07:42:35.610Z,24.16
2022-07-31T07:45:03.446Z,23.70
2022-07-31T07:48:02.836Z,24.76
2022-07-31T07:50:21.288Z,24.43
2022-07-31T07:52:47.787Z,24.91
2022-07-31T07:55:14.448Z,23.97
2022-07-31T07:57:44.887Z,24.42
2022-07-31T08:00:13.083Z,24.31
2022-07-31T08:02:41.147Z,24.49
2022-07-31T08:05:07.840Z,25.39
2022-07-31T08:07:41.968Z,25.33
2022-07-31T08:10:10.068Z,25.58
2022-07-31T08:12:36.779Z,25.45
2022-07-31T08:15:03.821Z,25.20
2022-07-31T08:17:30.408Z,25.31
2022-07-31T08:19:56.944Z,25.78
2022-07-31T08:22:23.545Z,25.60
2022-07-31T08:24:50.098Z,25.99
2022-07-31T08:27:39.988Z,25.58
2022-07-31T08:30:08.152Z,24.97
2022-07-31T08:32:34.733Z,25.83
2022-07-31T08:35:01.224Z,26.10
2022-07-31T08:37:59.254Z,26.51
2022-07-31T08:40:14.372Z,26.43
2022-07-31T08:42:40.884Z,26.09
2022-07-31T08:45:08.488Z,26.93
2022-07-31T08:47:36.309Z,26.37
2022-07-31T08:50:05.413Z,26.67
2022-07-31T08:52:34.357Z,26.31
2022-07-31T08:55:06.217Z,26.01
2022-07-31T08:57:33.087Z,26.53
2022-07-31T08:59:59.624Z,26.65
2022-07-31T09:02:26.184Z,26.83
2022-07-31T09:04:53.046Z,26.63
2022-07-31T09:07:19.759Z,27.33
2022-07-31T09:09:52.245Z,26.62
2022-07-31T09:12:34.098Z,27.73
2022-07-31T09:15:01.440Z,27.28
2022-07-31T09:17:37.072Z,27.39
2022-07-31T09:20:05.669Z,28.02
2022-07-31T09:22:32.307Z,28.21
2022-07-31T09:25:16.211Z,28.37
2022-07-31T09:27:42.965Z,28.41
2022-07-31T09:30:10.120Z,28.88
2022-07-31T09:32:36.813Z,28.54
2022-07-31T09:35:08.989Z,28.33
2022-07-31T09:37:36.048Z,28.51
2022-07-31T09:40:03.709Z,28.56
2022-07-31T09:42:45.575Z,27.36
2022-07-31T09:45:23.595Z,28.64
2022-07-31T09:48:15.189Z,28.17
2022-07-31T09:50:59.719Z,28.50
2022-07-31T09:53:26.802Z,28.88
2022-07-31T09:55:55.075Z,28.95
2022-07-31T09:58:22.686Z,28.54
2022-07-31T10:00:53.997Z,29.23
2022-07-31T10:03:22.247Z,28.49
2022-07-31T10:05:49.513Z,29.07
2022-07-31T10:08:21.091Z,28.73
2022-07-31T10:10:49.237Z,28.81
2022-07-31T10:13:20.593Z,29.29
2022-07-31T10:15:49.229Z,29.59
2022-07-31T10:18:17.827Z,29.79
2022-07-31T10:21:04.828Z,29.80
2022-07-31T10:23:34.536Z,29.22
2022-07-31T10:26:02.935Z,28.91
2022-07-31T10:28:29.814Z,29.88
2022-07-31T10:30:57.231Z,28.86
2022-07-31T10:33:42.972Z,29.79
2022-07-31T10:36:27.762Z,29.43
2022-07-31T10:39:14.140Z,28.67
2022-07-31T10:41:52.996Z,29.70
2022-07-31T10:44:30.716Z,30.07
2022-07-31T10:46:57.961Z,29.93
2022-07-31T10:49:44.447Z,29.33
2022-07-31T10:52:11.344Z,29.96
2022-07-31T10:54:47.573Z,29.71
2022-07-31T10:57:27.733Z,29.26
2022-07-31T10:59:54.408Z,29.98
2022-07-31T11:02:29.302Z,29.52
2022-07-31T11:05:10.437Z,29.62
2022-07-31T11:07:37.420Z,29.58
2022-07-31T11:10:18.482Z,29.62
2022-07-31T11:12:45.682Z,29.73
2022-07-31T11:15:19.625Z,29.34
2022-07-31T11:18:23.678Z,29.35
2022-07-31T11:20:32.918Z,29.63
2022-07-31T11:23:03.215Z,29.26
2022-07-31T11:25:32.370Z,29.31
2022-07-31T11:28:14.018Z,29.81
2022-07-31T11:30:54.091Z,29.73
2022-07-31T11:33:43.843Z,30.41
2022-07-31T11:36:17.710Z,29.93
2022-07-31T11:38:46.923Z,29.82
2022-07-31T11:41:15.155Z,30.39
2022-07-31T11:43:47.466Z,30.19
2022-07-31T11:46:19.688Z,29.19
2022-07-31T11:48:47.131Z,29.44
2022-07-31T11:51:18.682Z,29.01
2022-07-31T11:53:45.441Z,30.28
2022-07-31T11:56:12.702Z,29.95
2022-07-31T11:58:56.532Z,29.36
2022-07-31T12:01:28.979Z,29.71
2022-07-31T12:03:57.434Z,29.08
2022-07-31T12:06:34.948Z,29.57
2022-07-31T12:09:03.398Z,29.77
2022-07-31T12:11:30.101Z,29.95
2022-07-31T12:13:56.575Z,30.29
2022-07-31T12:16:23.053Z,29.97
2022-07-31T12:18:50.798Z,29.84
2022-07-31T12:21:18.661Z,30.12
2022-07-31T12:23:53.113Z,30.44
2022-07-31T12:26:30.745Z,29.37
2022-07-31T12:29:08.793Z,29.85
2022-07-31T12:31:53.091Z,30.46
2022-07-31T12:34:27.573Z,30.47
2022-07-31T12:37:15.240Z,30.16
2022-07-31T12:39:53.948Z,30.49
2022-07-31T12:42:35.311Z,29.98
2022-07-31T12:45:17.955Z,30.26
2022-07-31T12:47:51.588Z,29.43
2022-07-31T12:50:19.960Z,30.53
2022-07-31T12:52:46.413Z,30.75
2022-07-31T12:55:12.927Z,30.43
2022-07-31T12:57:44.665Z,30.15
2022-07-31T13:00:20.138Z,30.34
2022-07-31T13:02:46.850Z,30.25
2022-07-31T13:05:13.402Z,30.51
2022-07-31T13:07:39.863Z,30.49
2022-07-31T13:10:20.467Z,29.81
2022-07-31T13:12:51.441Z,30.58
2022-07-31T13:15:20.069Z,30.46
2022-07-31T13:17:50.717Z,30.35
2022-07-31T13:20:18.200Z,30.49
2022-07-31T13:22:45.037Z,30.59
2022-07-31T13:25:11.576Z,30.40
2022-07-31T13:27:38.145Z,30.79
2022-07-31T13:30:05.831Z,30.77
2022-07-31T13:32:32.733Z,29.44
2022-07-31T13:35:19.683Z,30.35
2022-07-31T13:37:46.602Z,30.58
2022-07-31T13:40:13.752Z,30.52
2022-07-31T13:42:40.408Z,30.52
2022-07-31T13:45:08.550Z,30.72
2022-07-31T13:47:50.600Z,30.62
2022-07-31T13:50:18.559Z,30.84
2022-07-31T13:52:45.052Z,29.84
2022-07-31T13:55:11.523Z,30.65
2022-07-31T13:57:37.995Z,30.59
2022-07-31T14:00:05.065Z,30.68
2022-07-31T14:02:31.665Z,30.62
2022-07-31T14:04:58.517Z,30.56
2022-07-31T14:07:48.470Z,31.11
2022-07-31T14:10:14.937Z,30.62
2022-07-31T14:12:43.768Z,30.47
2022-07-31T14:15:10.613Z,30.47
2022-07-31T14:17:37.796Z,29.88
2022-07-31T14:20:05.019Z,30.44
2022-07-31T14:22:31.532Z,30.51
2022-07-31T14:24:58.057Z,30.76
2022-07-31T14:27:24.663Z,30.84
2022-07-31T14:29:51.187Z,30.40
2022-07-31T14:32:19.245Z,30.25
2022-07-31T14:34:45.930Z,30.60
2022-07-31T14:37:12.505Z,30.99
2022-07-31T14:39:42.543Z,30.53
2022-07-31T14:42:09.671Z,31.04
2022-07-31T14:44:36.897Z,30.43
2022-07-31T14:47:04.044Z,30.59
2022-07-31T14:50:08.882Z,30.43
2022-07-31T14:52:18.115Z,30.69
2022-07-31T14:54:44.603Z,29.53
2022-07-31T14:57:11.378Z,30.10
2022-07-31T14:59:37.929Z,30.01
2022-07-31T15:02:04.629Z,30.40
2022-07-31T15:04:31.120Z,30.23
2022-07-31T15:07:13.097Z,29.47
2022-07-31T15:09:44.156Z,30.07
2022-07-31T15:12:13.280Z,29.66
2022-07-31T15:14:39.767Z,30.26
2022-07-31T15:17:06.532Z,30.50
2022-07-31T15:19:33.279Z,30.16
2022-07-31T15:22:11.193Z,30.18
2022-07-31T15:24:48.318Z,30.30
2022-07-31T15:27:17.266Z,30.34
2022-07-31T15:30:04.615Z,30.12
2022-07-31T15:32:30.359Z,30.50
2022-07-31T15:34:56.907Z,30.24
2022-07-31T15:37:23.497Z,30.57
2022-07-31T15:40:01.436Z,30.79
2022-07-31T15:42:30.141Z,29.82
2022-07-31T15:44:56.670Z,30.55
2022-07-31T15:47:23.151Z,30.88
2022-07-31T15:49:49.687Z,30.72
2022-07-31T15:52:18.816Z,30.44
2022-07-31T15:54:46.408Z,29.38
2022-07-31T15:57:13.457Z,30.17
2022-07-31T15:59:40.144Z,30.52
2022-07-31T16:02:07.226Z,30.31
2022-07-31T16:04:34.846Z,30.38
2022-07-31T16:08:27.190Z,30.30
2022-07-31T16:10:03.953Z,30.10
2022-07-31T16:12:35.150Z,30.32
2022-07-31T16:15:02.454Z,29.58
2022-07-31T16:17:37.825Z,29.24
2022-07-31T16:20:09.892Z,29.17
2022-07-31T16:22:37.686Z,29.29
2022-07-31T16:25:05.696Z,28.66
2022-07-31T16:27:32.371Z,28.86
2022-07-31T16:30:01.842Z,28.92
2022-07-31T16:32:28.818Z,29.45
2022-07-31T16:35:00.180Z,29.69
2022-07-31T16:37:51.654Z,29.03
2022-07-31T16:40:29.919Z,28.09
2022-07-31T16:43:50.804Z,28.45
2022-07-31T16:45:53.015Z,28.12
2022-07-31T16:48:19.694Z,28.94
2022-07-31T16:50:53.634Z,27.68
2022-07-31T16:54:10.458Z,28.10
2022-07-31T16:56:10.292Z,28.09
2022-07-31T16:58:36.855Z,27.14
2022-07-31T17:01:04.204Z,27.35
2022-07-31T17:03:58.528Z,26.85
2022-07-31T17:06:17.429Z,27.33
2022-07-31T17:08:43.918Z,27.44
2022-07-31T17:11:10.446Z,26.65
2022-07-31T17:13:36.916Z,26.87
2022-07-31T17:16:03.617Z,26.74
2022-07-31T17:18:30.090Z,26.57
2022-07-31T17:20:56.969Z,26.97
2022-07-31T17:23:43.161Z,25.89
2022-07-31T17:26:21.147Z,25.90
2022-07-31T17:28:49.395Z,25.83
2022-07-31T17:31:16.033Z,24.48
2022-07-31T17:33:59.769Z,24.62
2022-07-31T17:36:28.463Z,23.93
2022-07-31T17:38:55.553Z,23.81
2022-07-31T17:41:26.049Z,22.48
2022-07-31T17:43:55.761Z,23.25
2022-07-31T17:46:34.656Z,23.42
2022-07-31T17:49:05.839Z,23.48
2022-07-31T17:51:33.090Z,22.97
2022-07-31T17:53:59.901Z,23.35
2022-07-31T17:56:29.999Z,23.59
2022-07-31T17:59:03.676Z,23.25
2022-07-31T18:01:30.463Z,22.87
2022-07-31T18:03:57.015Z,22.85
2022-07-31T18:06:23.584Z,23.63
2022-07-31T18:08:50.161Z,23.73
2022-07-31T18:11:16.693Z,23.74
2022-07-31T18:13:48.174Z,23.33
2022-07-31T18:16:19.162Z,23.62
2022-07-31T18:18:46.187Z,23.85
2022-07-31T18:21:13.340Z,23.91
2022-07-31T18:23:43.445Z,23.98
2022-07-31T18:26:10.288Z,23.84
2022-07-31T18:28:37.359Z,23.83
2022-07-31T18:31:03.943Z,23.90
2022-07-31T18:33:50.408Z,23.95
2022-07-31T18:36:17.586Z,23.89
2022-07-31T18:38:44.060Z,23.92
2022-07-31T18:41:10.521Z,23.91
2022-07-31T18:43:37.405Z,24.03
2022-07-31T18:46:03.951Z,23.99
2022-07-31T18:48:30.553Z,23.85
2022-07-31T18:51:04.412Z,23.28
2022-07-31T18:53:32.400Z,23.38
2022-07-31T18:55:58.935Z,22.70
2022-07-31T18:58:25.479Z,23.01
2022-07-31T19:00:55.071Z,23.61
2022-07-31T19:03:23.401Z,23.62
2022-07-31T19:05:52.221Z,23.57
2022-07-31T19:08:19.460Z,23.16
2022-07-31T19:10:46.003Z,23.51
2022-07-31T19:13:18.985Z,23.77
2022-07-31T19:15:52.770Z,23.43
2022-07-31T19:18:25.084Z,23.65
2022-07-31T19:20:58.795Z,23.20
2022-07-31T19:23:41.817Z,22.68
2022-07-31T19:26:08.589Z,23.14
2022-07-31T19:28:36.709Z,23.06
2022-07-31T19:31:03.205Z,23.17
2022-07-31T19:33:29.754Z,23.11
2022-07-31T19:36:01.277Z,23.04
2022-07-31T19:38:30.088Z,22.95
2022-07-31T19:40:56.703Z,23.34
2022-07-31T19:43:23.304Z,23.47
2022-07-31T19:46:02.467Z,23.48
2022-07-31T19:48:36.767Z,23.29
2022-07-31T19:51:03.915Z,23.31
2022-07-31T19:53:30.459Z,23.44
2022-07-31T19:55:57.374Z,23.43
2022-07-31T19:58:23.915Z,23.58
2022-07-31T20:00:50.410Z,23.30
2022-07-31T20:03:17.005Z,23.29
2022-07-31T20:05:43.521Z,23.67
2022-07-31T20:08:10.411Z,23.67
2022-07-31T20:10:36.991Z,23.70
2022-07-31T20:13:03.487Z,23.49
2022-07-31T20:15:51.714Z,23.59
2022-07-31T20:18:26.801Z,23.61
2022-07-31T20:20:56.896Z,23.36
2022-07-31T20:23:23.699Z,23.60
2022-07-31T20:25:50.390Z,23.24
2022-07-31T20:28:17.013Z,23.44
2022-07-31T20:30:43.517Z,23.47
2022-07-31T20:33:11.349Z,23.53
2022-07-31T20:35:49.102Z,23.42
2022-07-31T20:38:24.070Z,23.40
2022-07-31T20:40:54.623Z,23.50
2022-07-31T20:43:26.896Z,23.35
2022-07-31T20:45:57.158Z,23.06
2022-07-31T20:48:32.695Z,22.51
2022-07-31T20:51:01.222Z,22.97
2022-07-31T20:53:28.851Z,23.00
2022-07-31T20:55:55.549Z,23.17
2022-07-31T20:58:23.377Z,22.48
2022-07-31T21:00:50.997Z,22.73
2022-07-31T21:03:18.379Z,23.18
2022-07-31T21:05:45.951Z,22.84
2022-07-31T21:08:12.825Z,23.24
2022-07-31T21:10:39.563Z,22.98
2022-07-31T21:13:06.079Z,23.01
2022-07-31T21:15:41.626Z,23.02
2022-07-31T21:18:18.908Z,23.19
2022-07-31T21:20:51.978Z,23.16
2022-07-31T21:23:24.995Z,23.24
2022-07-31T21:25:53.520Z,22.95
2022-07-31T21:28:20.717Z,22.91
2022-07-31T21:30:47.639Z,23.05
2022-07-31T21:33:14.974Z,23.16
2022-07-31T21:35:41.838Z,23.14
2022-07-31T21:38:15.054Z,23.14
2022-07-31T21:40:42.672Z,23.09
2022-07-31T21:43:10.084Z,23.17
2022-07-31T21:45:48.963Z,23.14
2022-07-31T21:48:22.997Z,23.19
2022-07-31T21:50:49.703Z,23.13
2022-07-31T21:53:16.463Z,23.01
2022-07-31T21:55:44.051Z,23.00
2022-07-31T21:58:10.685Z,23.05
2022-07-31T22:00:38.047Z,22.71
2022-07-31T22:03:05.752Z,22.93
2022-07-31T22:05:51.322Z,22.98
2022-07-31T22:08:18.792Z,23.09
2022-07-31T22:10:46.000Z,23.07
2022-07-31T22:13:12.651Z,22.97
2022-07-31T22:15:58.357Z,22.69
2022-07-31T22:18:30.197Z,22.54
2022-07-31T22:20:57.722Z,22.71
2022-07-31T22:23:26.026Z,22.14
2022-07-31T22:25:52.979Z,22.82
2022-07-31T22:28:21.041Z,22.85
2022-07-31T22:30:48.286Z,22.72
2022-07-31T22:33:14.986Z,22.75
2022-07-31T22:35:41.876Z,22.93
2022-07-31T22:38:11.017Z,22.15
2022-07-31T22:40:37.709Z,22.78
2022-07-31T22:44:05.617Z,22.91
2022-07-31T22:45:52.976Z,22.79
2022-07-31T22:48:21.754Z,22.80
2022-07-31T22:50:49.276Z,22.66
2022-07-31T22:53:15.950Z,22.68
2022-07-31T22:55:42.572Z,22.78
2022-07-31T22:58:11.235Z,22.74
2022-07-31T23:00:38.376Z,22.77
2022-07-31T23:03:04.982Z,22.63
2022-07-31T23:06:13.166Z,22.46
2022-07-31T23:08:18.061Z,22.56
2022-07-31T23:10:44.578Z,22.62
2022-07-31T23:13:11.059Z,22.83
2022-07-31T23:15:37.596Z,22.44
2022-07-31T23:18:04.160Z,22.26
2022-07-31T23:20:30.666Z,22.40
2022-07-31T23:22:57.281Z,21.91
2022-07-31T23:25:23.896Z,22.09
2022-07-31T23:27:50.391Z,21.94
2022-07-31T23:30:16.967Z,22.28
2022-07-31T23:32:43.414Z,22.27
2022-07-31T23:35:10.395Z,22.20
2022-07-31T23:37:36.902Z,22.64
2022-07-31T23:40:04.219Z,22.46
2022-07-31T23:42:39.697Z,21.99
2022-07-31T23:45:12.376Z,22.41
2022-07-31T23:47:45.716Z,22.65
2022-07-31T23:50:14.120Z,22.73
2022-07-31T23:52:41.213Z,22.50
2022-07-31T23:55:08.009Z,22.60
2022-07-31T23:57:36.122Z,22.87
